Prairieview, North Dakota
Current Conditions -  °F | °C
As of 6:54 AM on Tuesday 21 Oct 2014 (Local Time) from KMOT Reporting Station
Clear Clear  
Wind Chill: 45°   Ceiling: Unl
Heat Index: 48°   Visibility: 10mi
Dew Point: 35°   Wind: 7mph
Humidity: 61%   Direction: 110°ESE
Pressure: 29.82"   Gusts: NA
Location:  47.8053°N, 101.295°W
Report Text: KMOT 211154Z 11006KT 10SM CLR 09/02 A2982 RMK AO2 SLP101 T00890017 10111 20061 58011
Loading
Personal Weather Stations






























Interactive Weather Map
Tropical Storm Tracking
New forecast layout! Learn more

10-Day Weather Forecast

Advertisements
Track Severe Weather on mobile